Main page
METAR-TAF:

Airports :

Eleusina, Greece

latitude: 38-04N, longitude: 023-33E, elevation: 44 m

Current weather observation

The report was made 16 minutes ago, at 22:20 UTC
Wind 10 kt from the North/Northwest
Temperature 19°C
Humidity 56%
Pressure 1009 hPa
Visibility 10 km or more
Few clouds at a height of 3000 ft

METAR: LGEL 252220Z 33010KT 9999 FEW030 19/10 Q1009

Time: 01:36 (22:36 UTC)

Forecast

The report was made 5 hours and 36 minutes ago, at 17:00 UTC
Forecast valid from 25 at 18 UTC to 26 at 18 UTC
Wind 10 kt from the West/Northwest
Visibility 10 km or more
Few clouds at a height of 3000 ft
Temporary
from 25 at 18 UTC to 25 at 21 UTC
Wind 13 kt from the West/Northwest with gusts up to 23 kt

TAF: LGEL 251700Z 2518/2618 30010KT 9999 FEW030 TEMPO 2518/2521 30013G23KT

METAR-TAF

Weather observations and forecasts of more than 4000 airports (METAR and TAF reports).

The available stations are represented by yellow and red dots on the map.

Hover mouse over dot to see the name of the station.

Then click to see weather observations and forecasts.

To change the map : click on the green buttons with a black cross to zoom in, on the green button with a dash to zoom out, or on the green arrows for adjacent maps.


METAR-TAF: